Terminal Aerodrome Forecast
Issued by NWS Buffalo, NY

Home | Current Version | Previous Version | Text Only | Print | Product List | Glossary On
Versions: 1 2 3 4 5 6 7 8 9 10 11 12 13 14 15 16 17 18 19 20 21 22 23 24 25 26 27 28 29
980
FTUS41 KBUF 202320
TAFBUF
TAF
KBUF 202320Z 2100/2124 05007KT P6SM SCT250
     FM210300 08005KT P6SM BKN250
     FM210800 12004KT P6SM BKN200
     FM211300 17008KT P6SM BKN150
     FM211600 18012KT P6SM BKN150
     FM212100 20013KT 6SM -SHRA OVC060=

USA.gov is the U.S. government's official web portal to all federal, state and local government web resources and services.